createdAt,value
2018-06-29T00:01:10.755Z,3.33
2018-06-29T00:03:39.005Z,2.97
2018-06-29T00:06:07.188Z,3.23
2018-06-29T00:08:35.357Z,3.00
2018-06-29T00:11:03.527Z,3.30
2018-06-29T00:13:31.790Z,3.23
2018-06-29T00:15:59.953Z,3.67
2018-06-29T00:18:28.127Z,3.30
2018-06-29T00:20:56.312Z,3.83
2018-06-29T00:23:24.594Z,3.67
2018-06-29T00:28:27.371Z,3.60
2018-06-29T00:30:55.572Z,3.63
2018-06-29T00:33:23.860Z,3.60
2018-06-29T00:35:52.056Z,3.70
2018-06-29T00:38:20.236Z,3.97
2018-06-29T00:40:48.418Z,3.37
2018-06-29T00:43:16.640Z,3.77
2018-06-29T00:45:44.831Z,3.97
2018-06-29T00:48:13.008Z,3.70
2018-06-29T00:50:41.176Z,3.00
2018-06-29T00:53:09.438Z,3.10
2018-06-29T00:55:37.608Z,3.70
2018-06-29T00:58:05.784Z,3.50
2018-06-29T01:00:33.976Z,3.90
2018-06-29T01:03:02.237Z,3.33
2018-06-29T01:05:30.415Z,4.27
2018-06-29T01:07:58.601Z,3.90
2018-06-29T01:10:26.795Z,4.23
2018-06-29T01:12:55.009Z,4.40
2018-06-29T01:15:23.232Z,4.80
2018-06-29T01:17:51.408Z,4.80
2018-06-29T01:20:19.611Z,4.93
2018-06-29T01:22:47.612Z,5.40
2018-06-29T01:25:15.801Z,6.10
2018-06-29T01:27:44.010Z,5.83
2018-06-29T01:30:12.171Z,6.10
2018-06-29T01:32:40.348Z,7.37
2018-06-29T01:35:08.763Z,7.10
2018-06-29T01:37:36.936Z,6.73
2018-06-29T01:40:05.100Z,7.20
2018-06-29T01:42:33.032Z,8.60
2018-06-29T01:45:01.263Z,6.30
2018-06-29T01:47:29.481Z,8.40
2018-06-29T01:49:57.671Z,7.17
2018-06-29T01:52:25.872Z,7.93
2018-06-29T01:54:54.248Z,8.80
2018-06-29T01:57:22.464Z,9.47
2018-06-29T01:59:50.715Z,9.27
2018-06-29T02:02:18.906Z,10.57
2018-06-29T02:04:47.192Z,11.20
2018-06-29T02:07:15.392Z,12.57
2018-06-29T02:09:43.573Z,11.60
2018-06-29T02:12:13.711Z,12.10
2018-06-29T02:14:41.912Z,12.20
2018-06-29T02:17:10.125Z,10.90
2018-06-29T02:19:38.307Z,12.27
2018-06-29T02:22:06.492Z,13.40
2018-06-29T02:24:34.704Z,13.67
2018-06-29T02:27:02.884Z,14.90
2018-06-29T02:29:31.116Z,15.93
2018-06-29T02:34:34.081Z,15.33
2018-06-29T02:37:02.281Z,15.03
2018-06-29T02:39:30.456Z,16.03
2018-06-29T02:41:58.625Z,16.63
2018-06-29T02:44:26.913Z,16.90
2018-06-29T02:46:55.109Z,17.33
2018-06-29T02:49:23.283Z,15.20
2018-06-29T02:51:51.457Z,15.50
2018-06-29T02:54:19.666Z,16.37
2018-06-29T02:56:47.844Z,16.30
2018-06-29T02:59:16.048Z,17.07
2018-06-29T03:01:44.224Z,16.83
2018-06-29T03:04:12.461Z,15.73
2018-06-29T03:06:40.644Z,16.63
2018-06-29T03:09:09.622Z,17.57
2018-06-29T03:11:37.890Z,17.30
2018-06-29T03:14:06.452Z,17.40
2018-06-29T03:16:34.641Z,17.40
2018-06-29T03:19:02.819Z,16.93
2018-06-29T03:21:31.135Z,19.87
2018-06-29T03:23:59.380Z,20.30
2018-06-29T03:26:27.781Z,17.30
2018-06-29T03:28:56.028Z,17.30
2018-06-29T03:31:24.229Z,16.70
2018-06-29T03:33:52.474Z,16.40
2018-06-29T03:36:20.657Z,16.60
2018-06-29T03:38:48.865Z,16.43
2018-06-29T03:41:17.026Z,17.60
2018-06-29T03:43:45.317Z,16.73
2018-06-29T03:46:13.555Z,15.70
2018-06-29T03:48:41.736Z,14.90
2018-06-29T03:51:09.981Z,13.90
2018-06-29T03:53:38.175Z,14.43
2018-06-29T03:56:06.669Z,14.07
2018-06-29T03:58:34.844Z,16.00
2018-06-29T04:01:03.060Z,14.40
2018-06-29T04:03:31.276Z,13.43
2018-06-29T04:05:59.464Z,13.13
2018-06-29T04:08:27.663Z,13.20
2018-06-29T04:10:55.868Z,12.77
2018-06-29T04:13:24.091Z,13.40
2018-06-29T04:15:52.267Z,12.70
2018-06-29T04:18:20.441Z,11.80
2018-06-29T04:20:48.701Z,14.00
2018-06-29T04:23:16.995Z,12.40
2018-06-29T04:25:45.176Z,12.93
2018-06-29T04:28:13.376Z,11.67
2018-06-29T04:30:41.319Z,12.03
2018-06-29T04:33:09.584Z,12.97
2018-06-29T04:35:37.860Z,13.40
2018-06-29T04:38:06.132Z,13.10
2018-06-29T04:40:34.511Z,11.97
2018-06-29T04:43:02.809Z,12.20
2018-06-29T04:45:31.003Z,12.93
2018-06-29T04:47:59.001Z,13.80
2018-06-29T04:50:27.224Z,13.60
2018-06-29T04:52:55.532Z,11.93
2018-06-29T04:55:23.479Z,14.57
2018-06-29T04:57:51.690Z,13.80
2018-06-29T05:00:19.877Z,12.57
2018-06-29T05:02:48.163Z,13.10
2018-06-29T05:05:16.335Z,14.23
2018-06-29T05:07:44.530Z,13.70
2018-06-29T05:10:12.718Z,12.40
2018-06-29T05:12:40.890Z,13.87
2018-06-29T05:15:09.152Z,13.43
2018-06-29T05:17:37.352Z,14.10
2018-06-29T05:20:05.700Z,14.83
2018-06-29T05:22:33.900Z,13.53
2018-06-29T05:25:02.120Z,15.33
2018-06-29T05:27:30.300Z,13.47
2018-06-29T05:29:58.593Z,14.83
2018-06-29T05:32:26.773Z,13.67
2018-06-29T05:34:55.059Z,14.33
2018-06-29T05:37:23.285Z,14.07
2018-06-29T05:39:51.462Z,13.40
2018-06-29T05:42:19.789Z,14.27
2018-06-29T05:44:48.103Z,15.53
2018-06-29T05:47:16.351Z,13.90
2018-06-29T05:49:44.587Z,11.80
2018-06-29T05:52:12.859Z,12.37
2018-06-29T05:54:41.108Z,13.97
2018-06-29T05:57:09.416Z,11.60
2018-06-29T05:59:37.605Z,12.03
2018-06-29T06:02:06.252Z,12.43
2018-06-29T06:04:34.264Z,11.00
2018-06-29T06:07:02.449Z,10.80
2018-06-29T06:09:30.635Z,8.33
2018-06-29T06:11:58.820Z,7.40
2018-06-29T06:14:27.043Z,7.77
2018-06-29T06:16:55.216Z,7.27
2018-06-29T06:19:34.844Z,6.77
2018-06-29T06:22:03.083Z,6.87
2018-06-29T06:24:31.293Z,5.93
2018-06-29T06:26:59.496Z,6.10
2018-06-29T06:29:27.717Z,6.30
2018-06-29T06:31:55.915Z,6.30
2018-06-29T06:34:24.190Z,5.23
2018-06-29T06:36:52.403Z,5.93
2018-06-29T06:39:20.689Z,5.10
2018-06-29T06:41:48.856Z,5.00
2018-06-29T06:44:17.079Z,4.13
2018-06-29T06:46:45.265Z,4.83
2018-06-29T06:49:13.436Z,4.90
2018-06-29T06:51:41.623Z,4.23
2018-06-29T06:54:09.888Z,4.00
2018-06-29T06:56:38.079Z,4.03
2018-06-29T06:59:06.255Z,4.47
2018-06-29T07:01:34.429Z,3.13
2018-06-29T07:04:02.657Z,2.43
2018-06-29T07:06:30.861Z,4.10
2018-06-29T07:08:59.042Z,2.50
2018-06-29T07:11:27.516Z,3.10
2018-06-29T07:13:55.685Z,3.30
2018-06-29T07:16:23.856Z,3.73
2018-06-29T07:18:52.036Z,3.00
2018-06-29T07:21:20.333Z,3.40
2018-06-29T07:23:48.521Z,2.80
2018-06-29T07:26:16.791Z,3.80
2018-06-29T07:28:44.981Z,3.40
2018-06-29T07:31:13.171Z,3.30
2018-06-29T07:33:41.375Z,3.70
2018-06-29T07:36:09.547Z,3.70
2018-06-29T07:38:37.772Z,2.77
2018-06-29T07:41:05.925Z,3.17
2018-06-29T07:43:34.131Z,3.23
2018-06-29T07:46:02.312Z,3.57
2018-06-29T07:48:30.240Z,3.17
2018-06-29T07:50:58.460Z,3.43
2018-06-29T07:53:26.680Z,3.27
2018-06-29T07:55:54.865Z,3.20
2018-06-29T07:58:23.262Z,3.10
2018-06-29T08:00:51.006Z,3.13
2018-06-29T08:03:19.208Z,4.00
2018-06-29T08:05:47.128Z,3.10
2018-06-29T08:08:15.313Z,3.23
2018-06-29T08:10:43.594Z,3.70
2018-06-29T08:13:11.756Z,3.57
2018-06-29T08:15:39.929Z,2.63
2018-06-29T08:18:08.110Z,3.00
2018-06-29T08:20:36.280Z,2.67
2018-06-29T08:23:04.468Z,2.60
2018-06-29T08:25:32.648Z,2.53
2018-06-29T08:28:00.811Z,2.80
2018-06-29T08:30:28.994Z,2.33
2018-06-29T08:32:57.187Z,2.63
2018-06-29T08:35:25.120Z,3.60
2018-06-29T08:37:53.660Z,2.67
2018-06-29T08:40:21.869Z,2.30
2018-06-29T08:42:50.053Z,2.50
2018-06-29T08:45:18.248Z,3.00
2018-06-29T08:47:46.429Z,2.80
2018-06-29T08:50:14.371Z,2.90
2018-06-29T08:52:42.569Z,2.77
2018-06-29T08:55:10.793Z,2.73
2018-06-29T08:57:38.984Z,3.70
2018-06-29T09:00:07.928Z,2.33
2018-06-29T09:02:35.931Z,2.90
2018-06-29T09:05:04.209Z,3.50
2018-06-29T09:07:32.392Z,3.10
2018-06-29T09:10:00.592Z,2.90
2018-06-29T09:12:28.783Z,2.53
2018-06-29T09:14:56.739Z,2.43
2018-06-29T09:17:24.956Z,2.63
2018-06-29T09:19:53.249Z,2.30
2018-06-29T09:22:21.541Z,2.77
2018-06-29T09:24:49.728Z,2.50
2018-06-29T09:27:17.896Z,2.60
2018-06-29T09:29:46.088Z,1.73
2018-06-29T09:32:14.341Z,2.10
2018-06-29T09:34:42.516Z,2.30
2018-06-29T09:37:10.756Z,1.60
2018-06-29T09:39:38.925Z,1.90
2018-06-29T09:42:07.148Z,1.63
2018-06-29T09:44:35.329Z,1.50
2018-06-29T09:47:03.516Z,1.40
2018-06-29T09:49:31.720Z,1.43
2018-06-29T09:51:59.907Z,1.97
2018-06-29T09:54:28.109Z,1.60
2018-06-29T09:56:56.288Z,1.53
2018-06-29T09:59:24.473Z,1.57
2018-06-29T10:01:52.701Z,1.50
2018-06-29T10:04:20.973Z,1.60
2018-06-29T10:06:49.150Z,1.60
2018-06-29T10:09:17.401Z,1.93
2018-06-29T10:11:45.576Z,1.90
2018-06-29T10:14:13.759Z,1.80
2018-06-29T10:16:41.983Z,1.73
2018-06-29T10:19:10.205Z,1.70
2018-06-29T10:21:38.372Z,1.80
2018-06-29T10:24:06.576Z,1.57
2018-06-29T10:26:34.765Z,2.23
2018-06-29T10:29:02.940Z,1.47
2018-06-29T10:31:31.116Z,1.30
2018-06-29T10:33:59.301Z,1.40
2018-06-29T10:36:27.493Z,1.37
2018-06-29T10:38:55.428Z,2.33
2018-06-29T10:41:23.629Z,1.50
2018-06-29T10:43:51.767Z,1.20
2018-06-29T10:46:19.946Z,1.00
2018-06-29T10:48:48.220Z,1.00
2018-06-29T10:51:16.396Z,0.90
2018-06-29T10:53:44.593Z,1.57
2018-06-29T10:56:12.816Z,1.30
2018-06-29T10:58:41.080Z,1.30
2018-06-29T11:01:09.317Z,0.80
2018-06-29T11:04:40.700Z,0.90
2018-06-29T11:07:08.933Z,0.90
2018-06-29T11:09:37.096Z,0.97
2018-06-29T11:12:05.376Z,1.00
2018-06-29T11:14:33.596Z,1.00
2018-06-29T11:17:01.761Z,0.93
2018-06-29T11:19:29.712Z,1.13
2018-06-29T11:21:57.892Z,1.00
2018-06-29T11:24:26.075Z,1.00
2018-06-29T11:26:53.988Z,1.00
2018-06-29T11:29:22.179Z,1.30
2018-06-29T11:31:50.365Z,0.87
2018-06-29T11:34:18.552Z,1.40
2018-06-29T11:36:46.759Z,1.10
2018-06-29T11:39:14.996Z,1.10
2018-06-29T11:41:43.612Z,1.37
2018-06-29T11:44:12.626Z,1.07
2018-06-29T11:46:40.541Z,1.70
2018-06-29T11:49:09.056Z,1.20
2018-06-29T11:51:37.256Z,1.30
2018-06-29T11:54:05.708Z,1.37
2018-06-29T11:56:33.886Z,1.20
2018-06-29T11:59:02.053Z,0.90
2018-06-29T12:01:30.260Z,1.00
2018-06-29T12:03:58.536Z,1.30
2018-06-29T12:06:26.705Z,1.17
2018-06-29T12:08:54.886Z,1.20
2018-06-29T12:11:23.065Z,1.17
2018-06-29T12:13:51.269Z,1.10
2018-06-29T12:16:19.448Z,1.37
2018-06-29T12:18:47.629Z,1.40
2018-06-29T12:21:15.551Z,1.43
2018-06-29T12:23:43.795Z,1.50
2018-06-29T12:26:11.969Z,1.73
2018-06-29T12:28:40.160Z,1.60
2018-06-29T12:31:08.367Z,1.20
2018-06-29T12:33:36.574Z,1.40
2018-06-29T12:36:04.790Z,1.20
2018-06-29T12:38:32.979Z,1.40
2018-06-29T12:41:01.151Z,1.20
2018-06-29T12:43:29.360Z,1.60
2018-06-29T12:45:57.555Z,1.50
2018-06-29T12:48:25.708Z,1.60
2018-06-29T12:50:53.646Z,1.33
2018-06-29T12:53:21.834Z,1.63
2018-06-29T12:55:50.052Z,1.33
2018-06-29T12:58:18.205Z,2.03
2018-06-29T13:00:46.364Z,1.43
2018-06-29T13:03:14.544Z,1.20
2018-06-29T13:05:42.622Z,2.00
2018-06-29T13:08:10.733Z,1.70
2018-06-29T13:10:38.899Z,1.50
2018-06-29T13:13:07.136Z,1.33
2018-06-29T13:15:35.069Z,0.90
2018-06-29T13:18:03.237Z,1.10
2018-06-29T13:20:31.421Z,0.80
2018-06-29T13:22:59.600Z,0.80
2018-06-29T13:25:27.805Z,0.93
2018-06-29T13:27:55.977Z,0.90
2018-06-29T13:30:24.324Z,1.17
2018-06-29T13:32:52.516Z,1.10
2018-06-29T13:35:20.466Z,1.37
2018-06-29T13:37:48.624Z,1.60
2018-06-29T13:40:16.821Z,1.10
2018-06-29T13:42:45.010Z,0.90
2018-06-29T13:45:12.936Z,1.10
2018-06-29T13:47:41.092Z,0.90
2018-06-29T13:50:09.285Z,1.10
2018-06-29T13:52:37.484Z,1.50
2018-06-29T13:55:05.692Z,1.33
2018-06-29T13:57:33.879Z,1.30
2018-06-29T14:00:02.090Z,2.00
2018-06-29T14:02:30.305Z,1.40
2018-06-29T14:04:58.464Z,1.50
2018-06-29T14:07:26.430Z,2.13
2018-06-29T14:09:54.649Z,1.70
2018-06-29T14:12:22.872Z,1.83
2018-06-29T14:14:51.047Z,2.00
2018-06-29T14:17:19.225Z,2.00
2018-06-29T14:19:47.526Z,1.80
2018-06-29T14:22:15.697Z,2.10
2018-06-29T14:24:43.917Z,1.70
2018-06-29T14:27:12.125Z,1.73
2018-06-29T14:29:40.105Z,2.33
2018-06-29T14:32:08.292Z,2.23
2018-06-29T14:34:36.627Z,2.20
2018-06-29T14:37:04.884Z,2.50
2018-06-29T14:39:33.071Z,2.57
2018-06-29T14:42:01.265Z,2.27
2018-06-29T14:44:29.485Z,2.10
2018-06-29T14:46:57.661Z,1.83
2018-06-29T14:49:25.863Z,1.90
2018-06-29T14:51:54.053Z,2.40
2018-06-29T14:54:22.460Z,1.53
2018-06-29T14:56:50.632Z,2.10
2018-06-29T14:59:18.832Z,2.20
2018-06-29T15:01:47.001Z,2.50
2018-06-29T15:04:15.231Z,2.30
2018-06-29T15:06:43.461Z,2.53
2018-06-29T15:09:11.644Z,2.77
2018-06-29T15:11:39.855Z,2.30
2018-06-29T15:14:08.060Z,2.67
2018-06-29T15:16:36.272Z,2.83
2018-06-29T15:19:04.494Z,2.20
2018-06-29T15:21:32.514Z,2.90
2018-06-29T15:24:01.769Z,2.67
2018-06-29T15:26:30.057Z,3.40
2018-06-29T15:28:58.234Z,2.87
2018-06-29T15:31:26.481Z,3.60
2018-06-29T15:33:54.623Z,2.77
2018-06-29T15:36:22.800Z,3.67
2018-06-29T15:38:50.979Z,3.20
2018-06-29T15:41:19.169Z,3.57
2018-06-29T15:43:47.120Z,3.00
2018-06-29T15:46:15.316Z,3.50
2018-06-29T15:48:43.276Z,3.50
2018-06-29T15:51:11.433Z,3.47
2018-06-29T15:53:39.623Z,3.80
2018-06-29T15:56:07.789Z,3.77
2018-06-29T15:58:35.951Z,3.90
2018-06-29T16:01:04.124Z,4.03
2018-06-29T16:03:32.295Z,4.17
2018-06-29T16:06:00.481Z,4.10
2018-06-29T16:08:28.659Z,3.23
2018-06-29T16:10:56.835Z,3.97
2018-06-29T16:13:25.215Z,3.70
2018-06-29T16:15:53.171Z,4.40
2018-06-29T16:18:21.352Z,4.00
2018-06-29T16:20:49.536Z,4.50
2018-06-29T16:23:17.476Z,4.20
2018-06-29T16:25:45.696Z,4.90
2018-06-29T16:28:13.863Z,6.13
2018-06-29T16:30:42.029Z,5.23
2018-06-29T16:33:10.044Z,5.57
2018-06-29T16:35:38.883Z,5.27
2018-06-29T16:38:07.324Z,5.57
2018-06-29T16:40:35.504Z,6.33
2018-06-29T16:43:03.713Z,6.03
2018-06-29T16:45:31.647Z,4.70
2018-06-29T16:47:59.828Z,5.80
2018-06-29T16:50:28.066Z,5.70
2018-06-29T16:52:56.199Z,5.63
2018-06-29T16:55:24.146Z,6.07
2018-06-29T16:57:52.315Z,5.30
2018-06-29T17:00:20.530Z,5.30
2018-06-29T17:02:48.714Z,4.43
2018-06-29T17:05:16.879Z,4.27
2018-06-29T17:07:45.069Z,4.33
2018-06-29T17:10:13.236Z,5.63
2018-06-29T17:12:41.400Z,5.33
2018-06-29T17:15:09.925Z,5.40
2018-06-29T17:17:38.231Z,4.20
2018-06-29T17:20:06.400Z,4.20
2018-06-29T17:22:34.601Z,4.73
2018-06-29T17:25:02.561Z,4.27
2018-06-29T17:27:30.717Z,4.17
2018-06-29T17:29:58.887Z,4.13
2018-06-29T17:32:27.123Z,4.63
2018-06-29T17:34:55.313Z,4.13
2018-06-29T17:37:23.477Z,4.37
2018-06-29T17:39:51.737Z,3.83
2018-06-29T17:42:19.914Z,3.30
2018-06-29T17:44:48.095Z,3.30
2018-06-29T17:47:16.268Z,3.80
2018-06-29T17:49:44.474Z,3.97
2018-06-29T17:52:12.643Z,3.07
2018-06-29T17:54:40.817Z,3.07
2018-06-29T17:57:08.992Z,3.40
2018-06-29T17:59:37.227Z,3.67
2018-06-29T18:02:05.400Z,3.30
2018-06-29T18:04:33.855Z,3.07
2018-06-29T18:07:01.898Z,3.30
2018-06-29T18:09:29.984Z,4.33
2018-06-29T18:11:57.926Z,3.30
2018-06-29T18:14:26.085Z,4.13
2018-06-29T18:16:54.272Z,3.70
2018-06-29T18:19:22.468Z,3.67
2018-06-29T18:21:50.648Z,3.20
2018-06-29T18:24:18.575Z,4.50
2018-06-29T18:26:46.763Z,4.20
2018-06-29T18:29:14.973Z,5.10
2018-06-29T18:31:42.915Z,5.10
2018-06-29T18:34:11.089Z,5.57
2018-06-29T18:36:39.270Z,4.47
2018-06-29T18:39:08.632Z,5.00
2018-06-29T18:41:36.824Z,5.43
2018-06-29T18:44:05.003Z,5.07
2018-06-29T18:46:33.176Z,4.77
2018-06-29T18:49:01.412Z,4.77
2018-06-29T18:51:29.522Z,4.90
2018-06-29T18:53:57.712Z,4.60
2018-06-29T18:56:26.581Z,4.63
2018-06-29T18:58:54.828Z,4.63
2018-06-29T19:01:22.963Z,4.07
2018-06-29T19:03:51.144Z,4.20
2018-06-29T19:06:19.083Z,4.40
2018-06-29T19:08:47.292Z,4.30
2018-06-29T19:11:15.489Z,4.20
2018-06-29T19:13:43.709Z,3.90
2018-06-29T19:16:11.903Z,4.40
2018-06-29T19:18:41.335Z,3.90
2018-06-29T19:21:09.517Z,3.70
2018-06-29T19:23:37.694Z,3.97
2018-06-29T19:26:05.890Z,3.47
2018-06-29T19:28:34.105Z,3.80
2018-06-29T19:31:02.276Z,3.60
2018-06-29T19:33:30.469Z,3.53
2018-06-29T19:35:58.644Z,3.50
2018-06-29T19:38:27.092Z,3.60
2018-06-29T19:40:55.031Z,3.67
2018-06-29T19:43:23.203Z,3.30
2018-06-29T19:45:51.396Z,3.43
2018-06-29T19:48:19.570Z,4.30
2018-06-29T19:50:47.751Z,4.10
2018-06-29T19:53:15.779Z,4.10
2018-06-29T19:55:43.955Z,4.50
2018-06-29T19:58:12.139Z,4.10
2018-06-29T20:00:40.324Z,4.20
2018-06-29T20:03:08.499Z,4.70
2018-06-29T20:05:36.672Z,4.30
2018-06-29T20:08:04.879Z,4.20
2018-06-29T20:10:33.070Z,5.00
2018-06-29T20:13:01.252Z,5.33
2018-06-29T20:15:29.423Z,4.80
2018-06-29T20:17:57.649Z,4.80
2018-06-29T20:20:25.953Z,5.23
2018-06-29T20:22:54.107Z,5.70
2018-06-29T20:25:22.271Z,5.40
2018-06-29T20:27:50.484Z,6.33
2018-06-29T20:30:18.672Z,6.03
2018-06-29T20:32:46.864Z,5.53
2018-06-29T20:35:15.041Z,5.20
2018-06-29T20:37:43.212Z,6.13
2018-06-29T20:40:11.399Z,5.63
2018-06-29T20:42:39.585Z,5.90
2018-06-29T20:45:07.764Z,5.20
2018-06-29T20:47:35.968Z,6.27
2018-06-29T20:50:04.279Z,7.00
2018-06-29T20:52:32.455Z,7.07
2018-06-29T20:55:00.631Z,6.97
2018-06-29T20:57:28.824Z,6.40
2018-06-29T20:59:57.072Z,7.27
2018-06-29T21:02:25.432Z,5.93
2018-06-29T21:04:53.672Z,6.43
2018-06-29T21:07:21.779Z,7.43
2018-06-29T21:09:49.951Z,7.00
2018-06-29T21:12:18.111Z,6.00
2018-06-29T21:14:46.288Z,6.13
2018-06-29T21:17:14.483Z,6.47
2018-06-29T21:19:42.676Z,6.57
2018-06-29T21:22:10.855Z,7.73
2018-06-29T21:24:39.043Z,8.93
2018-06-29T21:27:07.311Z,8.20
2018-06-29T21:29:35.475Z,8.10
2018-06-29T21:32:03.670Z,8.20
2018-06-29T21:34:32.108Z,7.90
2018-06-29T21:37:00.359Z,9.10
2018-06-29T21:39:28.527Z,9.30
2018-06-29T21:41:56.728Z,10.60
2018-06-29T21:44:25.004Z,8.40
2018-06-29T21:46:53.212Z,9.73
2018-06-29T21:49:21.421Z,9.10
2018-06-29T21:51:49.600Z,9.50
2018-06-29T21:54:17.807Z,8.83
2018-06-29T21:56:45.948Z,9.50
2018-06-29T21:59:14.139Z,9.93
2018-06-29T22:01:42.324Z,11.50
2018-06-29T22:04:10.760Z,10.10
2018-06-29T22:06:38.952Z,11.37
2018-06-29T22:09:08.348Z,9.00
2018-06-29T22:11:36.528Z,10.30
2018-06-29T22:14:04.728Z,10.60
2018-06-29T22:16:32.920Z,10.33
2018-06-29T22:19:01.101Z,10.90
2018-06-29T22:21:29.289Z,10.10
2018-06-29T22:23:57.527Z,11.67
2018-06-29T22:26:25.820Z,10.93
2018-06-29T22:28:54.135Z,11.77
2018-06-29T22:31:22.071Z,10.83
2018-06-29T22:33:50.280Z,11.40
2018-06-29T22:36:18.481Z,11.10
2018-06-29T22:38:46.701Z,10.77
2018-06-29T22:41:14.894Z,11.67
2018-06-29T22:43:42.848Z,11.10
2018-06-29T22:46:11.020Z,11.20
2018-06-29T22:48:39.196Z,10.10
2018-06-29T22:51:07.397Z,11.50
2018-06-29T22:53:35.596Z,10.77
2018-06-29T22:56:03.839Z,11.30
2018-06-29T22:58:32.020Z,9.97
2018-06-29T23:01:00.225Z,11.50
2018-06-29T23:03:33.880Z,10.93
2018-06-29T23:06:01.835Z,12.30
2018-06-29T23:08:30.020Z,11.50
2018-06-29T23:10:58.188Z,10.40
2018-06-29T23:13:26.453Z,11.10
2018-06-29T23:15:54.647Z,11.20
2018-06-29T23:18:22.636Z,11.40
2018-06-29T23:20:50.869Z,11.47
2018-06-29T23:23:19.075Z,13.23
2018-06-29T23:25:47.284Z,11.87
2018-06-29T23:28:15.501Z,11.97
2018-06-29T23:30:43.676Z,12.80
2018-06-29T23:33:11.874Z,11.00
2018-06-29T23:35:40.044Z,12.50
2018-06-29T23:38:08.294Z,12.40
2018-06-29T23:40:36.808Z,13.50
2018-06-29T23:43:05.344Z,12.10
2018-06-29T23:45:33.706Z,12.70
2018-06-29T23:48:01.882Z,13.37
2018-06-29T23:50:30.085Z,12.80
2018-06-29T23:52:58.292Z,14.90
2018-06-29T23:55:26.496Z,13.93
2018-06-29T23:57:54.656Z,15.30
